createdAt,value
2022-11-15T00:02:45.755Z,12.90
2022-11-15T00:05:37.107Z,11.90
2022-11-15T00:08:31.582Z,12.90
2022-11-15T00:11:22.013Z,13.35
2022-11-15T00:14:13.131Z,12.00
2022-11-15T00:17:03.608Z,14.13
2022-11-15T00:19:53.940Z,11.23
2022-11-15T00:22:44.326Z,14.82
2022-11-15T00:25:35.052Z,11.75
2022-11-15T00:28:26.801Z,14.10
2022-11-15T00:31:17.409Z,12.43
2022-11-15T00:34:07.877Z,12.38
2022-11-15T00:36:58.412Z,11.32
2022-11-15T00:39:48.836Z,10.52
2022-11-15T00:42:39.401Z,12.77
2022-11-15T00:45:30.139Z,15.80
2022-11-15T00:48:20.624Z,11.95
2022-11-15T00:51:10.896Z,13.82
2022-11-15T00:54:02.109Z,13.13
2022-11-15T00:56:52.459Z,13.60
2022-11-15T00:59:42.838Z,12.23
2022-11-15T01:02:33.285Z,11.18
2022-11-15T01:05:23.930Z,14.90
2022-11-15T01:08:16.561Z,13.63
2022-11-15T01:11:12.886Z,13.98
2022-11-15T01:14:03.636Z,14.25
2022-11-15T01:17:00.104Z,13.27
2022-11-15T01:19:50.517Z,14.00
2022-11-15T01:22:40.799Z,14.00
2022-11-15T01:25:31.194Z,12.57
2022-11-15T01:28:21.707Z,12.90
2022-11-15T01:31:17.868Z,10.95
2022-11-15T01:34:08.311Z,12.93
2022-11-15T01:36:58.784Z,13.55
2022-11-15T01:39:49.242Z,12.82
2022-11-15T01:42:39.667Z,10.82
2022-11-15T01:45:30.069Z,13.57
2022-11-15T01:48:21.407Z,10.80
2022-11-15T01:51:18.707Z,11.93
2022-11-15T01:54:14.994Z,11.98
2022-11-15T01:57:10.639Z,10.45
2022-11-15T02:00:02.589Z,10.27
2022-11-15T02:02:53.563Z,11.95
2022-11-15T02:05:45.157Z,9.93
2022-11-15T02:08:36.027Z,10.88
2022-11-15T02:11:27.173Z,8.93
2022-11-15T02:14:22.127Z,12.13
2022-11-15T02:17:38.156Z,9.43
2022-11-15T02:20:48.121Z,10.52
2022-11-15T02:23:57.397Z,9.15
2022-11-15T02:27:06.817Z,10.65
2022-11-15T02:30:20.991Z,7.47
2022-11-15T02:33:28.065Z,10.00
2022-11-15T02:37:05.835Z,8.70
2022-11-15T02:40:08.264Z,9.20
2022-11-15T02:43:30.849Z,8.30
2022-11-15T02:46:55.946Z,8.32
2022-11-15T02:52:41.994Z,7.90
2022-11-15T02:55:42.167Z,8.82
2022-11-15T02:59:08.544Z,8.63
2022-11-15T03:02:21.069Z,10.00
2022-11-15T03:05:30.124Z,10.20
2022-11-15T03:08:33.664Z,9.38
2022-11-15T03:11:25.365Z,11.45
2022-11-15T03:14:30.740Z,12.13
2022-11-15T03:17:53.012Z,12.73
2022-11-15T03:20:44.706Z,11.50
2022-11-15T03:23:37.610Z,11.60
2022-11-15T03:26:29.508Z,9.13
2022-11-15T03:29:25.837Z,9.98
2022-11-15T03:32:25.155Z,8.30
2022-11-15T03:35:22.930Z,10.35
2022-11-15T03:38:27.982Z,8.23
2022-11-15T03:41:30.028Z,8.75
2022-11-15T03:44:40.532Z,7.20
2022-11-15T03:47:54.744Z,10.55
2022-11-15T03:50:47.082Z,6.50
2022-11-15T03:53:37.968Z,9.13
2022-11-15T03:56:28.414Z,6.15
2022-11-15T03:59:19.622Z,6.88
2022-11-15T04:02:10.022Z,7.00
2022-11-15T04:05:00.532Z,8.38
2022-11-15T04:07:51.323Z,6.82
2022-11-15T04:10:42.387Z,11.95
2022-11-15T04:13:33.424Z,6.78
2022-11-15T04:16:24.561Z,6.45
2022-11-15T04:19:34.078Z,6.45
2022-11-15T04:22:43.678Z,6.75
2022-11-15T04:25:34.225Z,7.72
2022-11-15T04:28:24.949Z,7.35
2022-11-15T04:31:15.540Z,8.02
2022-11-15T04:34:05.985Z,7.75
2022-11-15T04:37:14.879Z,7.22
2022-11-15T04:40:05.912Z,6.57
2022-11-15T04:43:03.279Z,6.47
2022-11-15T04:45:54.692Z,6.97
2022-11-15T04:48:47.013Z,6.30
2022-11-15T04:51:37.946Z,6.50
2022-11-15T04:54:28.578Z,7.70
2022-11-15T04:57:19.610Z,7.32
2022-11-15T05:00:13.910Z,6.93
2022-11-15T05:06:13.727Z,7.88
2022-11-15T05:09:04.756Z,5.43
2022-11-15T05:11:55.299Z,7.43
2022-11-15T05:14:45.840Z,8.35
2022-11-15T05:17:36.415Z,12.48
2022-11-15T05:20:26.999Z,13.23
2022-11-15T05:23:17.669Z,9.40
2022-11-15T05:26:10.353Z,13.10
2022-11-15T05:29:00.795Z,16.70
2022-11-15T05:31:51.254Z,19.52
2022-11-15T05:34:41.957Z,13.82
2022-11-15T05:37:32.373Z,12.85
2022-11-15T05:40:22.976Z,12.82
2022-11-15T05:43:13.884Z,15.13
2022-11-15T05:46:05.479Z,7.47
2022-11-15T05:48:57.567Z,7.97
2022-11-15T05:51:49.370Z,8.75
2022-11-15T05:54:40.744Z,13.25
2022-11-15T05:57:31.616Z,10.13
2022-11-15T06:00:22.187Z,8.82
2022-11-15T06:03:12.751Z,9.55
2022-11-15T06:06:03.347Z,8.35
2022-11-15T06:08:53.734Z,10.32
2022-11-15T06:11:44.227Z,8.40
2022-11-15T06:14:34.618Z,10.48
2022-11-15T06:17:25.011Z,9.55
2022-11-15T06:20:15.620Z,13.50
2022-11-15T06:23:06.346Z,10.15
2022-11-15T06:25:59.253Z,7.95
2022-11-15T06:28:50.299Z,10.55
2022-11-15T06:31:41.643Z,9.00
2022-11-15T06:34:32.804Z,10.30
2022-11-15T06:37:23.521Z,11.70
2022-11-15T06:40:14.682Z,8.57
2022-11-15T06:43:05.951Z,9.90
2022-11-15T06:45:56.800Z,8.20
2022-11-15T06:48:47.644Z,8.23
2022-11-15T06:51:38.601Z,9.10
2022-11-15T06:54:29.134Z,9.00
2022-11-15T06:57:20.065Z,11.25
2022-11-15T07:00:11.244Z,8.95
2022-11-15T07:03:02.176Z,10.05
2022-11-15T07:05:54.835Z,8.13
2022-11-15T07:08:46.774Z,9.02
2022-11-15T07:11:37.406Z,12.15
2022-11-15T07:14:27.702Z,9.73
2022-11-15T07:17:18.529Z,9.27
2022-11-15T07:20:09.280Z,9.35
2022-11-15T07:23:04.679Z,11.43
2022-11-15T07:25:54.939Z,8.25
2022-11-15T07:28:45.297Z,11.52
2022-11-15T07:31:35.822Z,8.30
2022-11-15T07:34:26.467Z,8.73
2022-11-15T07:37:18.001Z,9.73
2022-11-15T07:40:09.473Z,12.48
2022-11-15T07:43:04.184Z,8.65
2022-11-15T07:45:59.121Z,13.05
2022-11-15T07:48:50.573Z,13.13
2022-11-15T07:51:40.840Z,11.10
2022-11-15T07:54:31.613Z,10.82
2022-11-15T07:57:22.296Z,10.70
2022-11-15T08:00:13.498Z,11.77
2022-11-15T08:03:10.093Z,10.23
2022-11-15T08:06:01.159Z,12.48
2022-11-15T08:08:51.727Z,11.43
2022-11-15T08:11:42.164Z,11.02
2022-11-15T08:14:33.126Z,10.10
2022-11-15T08:17:25.206Z,12.52
2022-11-15T08:20:16.340Z,10.35
2022-11-15T08:23:08.648Z,9.23
2022-11-15T08:26:05.991Z,13.85
2022-11-15T08:28:56.713Z,14.07
2022-11-15T08:31:47.127Z,7.88
2022-11-15T08:34:38.727Z,9.07
2022-11-15T08:37:29.411Z,10.25
2022-11-15T08:40:20.895Z,8.13
2022-11-15T08:43:11.820Z,7.78
2022-11-15T08:46:02.226Z,9.20
2022-11-15T08:48:52.657Z,10.48
2022-11-15T08:51:43.622Z,12.13
2022-11-15T08:54:34.139Z,10.13
2022-11-15T08:57:24.805Z,9.45
2022-11-15T09:00:15.956Z,12.80
2022-11-15T09:03:08.334Z,15.80
2022-11-15T09:06:01.267Z,9.68
2022-11-15T09:08:51.970Z,8.95
2022-11-15T09:11:42.845Z,10.98
2022-11-15T09:14:33.334Z,8.38
2022-11-15T09:17:25.153Z,8.35
2022-11-15T09:20:16.323Z,8.45
2022-11-15T09:23:07.511Z,6.80
2022-11-15T09:26:02.333Z,5.47
2022-11-15T09:28:52.975Z,9.45
2022-11-15T09:31:43.787Z,6.13
2022-11-15T09:34:34.330Z,5.28
2022-11-15T09:37:24.674Z,6.93
2022-11-15T09:40:18.473Z,6.65
2022-11-15T09:43:33.832Z,8.02
2022-11-15T09:46:40.043Z,4.45
2022-11-15T09:49:19.497Z,5.53
2022-11-15T09:51:55.671Z,6.25
2022-11-15T09:54:56.723Z,7.75
2022-11-15T09:57:53.416Z,7.43
2022-11-15T10:00:46.389Z,5.32
2022-11-15T10:03:36.435Z,4.43
2022-11-15T10:06:24.282Z,5.88
2022-11-15T10:08:56.293Z,9.27
2022-11-15T10:11:38.574Z,5.78
2022-11-15T10:14:24.835Z,5.95
2022-11-15T10:17:11.713Z,3.88
2022-11-15T10:20:06.212Z,5.55
2022-11-15T10:22:48.410Z,5.65
2022-11-15T10:25:28.149Z,4.30
2022-11-15T10:28:10.923Z,3.97
2022-11-15T10:30:49.981Z,3.85
2022-11-15T10:33:40.418Z,4.53
2022-11-15T10:36:12.770Z,4.80
2022-11-15T10:38:50.799Z,3.95
2022-11-15T10:41:33.105Z,5.00
2022-11-15T10:44:08.167Z,3.90
2022-11-15T10:46:47.631Z,6.30
2022-11-15T10:49:28.868Z,5.40
2022-11-15T10:52:02.888Z,4.50
2022-11-15T10:55:00.653Z,5.28
2022-11-15T10:57:37.581Z,6.63
2022-11-15T11:00:21.579Z,3.83
2022-11-15T11:02:56.357Z,5.38
2022-11-15T11:05:39.893Z,5.63
2022-11-15T11:08:17.319Z,5.00
2022-11-15T11:11:03.244Z,4.10
2022-11-15T11:13:39.904Z,5.35
2022-11-15T11:16:15.017Z,7.82
2022-11-15T11:18:58.754Z,3.88
2022-11-15T11:22:26.560Z,7.35
2022-11-15T11:25:14.550Z,3.47
2022-11-15T11:28:24.287Z,4.05
2022-11-15T11:31:29.563Z,4.13
2022-11-15T11:34:16.996Z,6.93
2022-11-15T11:37:03.783Z,4.82
2022-11-15T11:39:46.199Z,3.85
2022-11-15T11:42:42.301Z,4.20
2022-11-15T11:45:24.079Z,4.20
2022-11-15T11:48:08.160Z,5.93
2022-11-15T11:50:42.187Z,8.43
2022-11-15T11:53:29.987Z,4.78
2022-11-15T11:56:39.289Z,4.22
2022-11-15T11:59:29.859Z,3.53
2022-11-15T12:02:19.300Z,3.45
2022-11-15T12:04:57.917Z,2.63
2022-11-15T12:07:34.073Z,5.70
2022-11-15T12:10:18.679Z,3.25
2022-11-15T12:12:55.432Z,4.90
2022-11-15T12:15:33.250Z,6.93
2022-11-15T12:18:05.790Z,3.60
2022-11-15T12:20:51.213Z,3.28
2022-11-15T12:23:33.931Z,3.67
2022-11-15T12:26:15.733Z,7.13
2022-11-15T12:29:06.981Z,4.05
2022-11-15T12:31:47.081Z,3.15
2022-11-15T12:34:22.318Z,3.22
2022-11-15T12:36:54.976Z,5.25
2022-11-15T12:40:04.571Z,3.47
2022-11-15T12:42:43.651Z,4.75
2022-11-15T12:45:28.760Z,4.15
2022-11-15T12:48:19.347Z,4.10
2022-11-15T12:50:56.182Z,3.30
2022-11-15T12:53:34.305Z,4.15
2022-11-15T12:56:18.327Z,8.27
2022-11-15T12:58:59.222Z,6.57
2022-11-15T13:01:35.190Z,4.72
2022-11-15T13:04:25.289Z,3.17
2022-11-15T13:07:04.581Z,3.50
2022-11-15T13:09:36.661Z,3.72
2022-11-15T13:12:14.590Z,6.93
2022-11-15T13:14:48.702Z,3.88
2022-11-15T13:17:20.858Z,7.03
2022-11-15T13:20:17.942Z,3.63
2022-11-15T13:22:59.309Z,4.20
2022-11-15T13:25:37.275Z,4.68
2022-11-15T13:28:15.335Z,4.22
2022-11-15T13:30:55.544Z,4.30
2022-11-15T13:33:40.206Z,3.42
2022-11-15T13:36:22.587Z,3.40
2022-11-15T13:39:24.481Z,4.28
2022-11-15T13:41:56.683Z,4.55
2022-11-15T13:44:32.756Z,5.85
2022-11-15T13:47:06.609Z,4.68
2022-11-15T13:49:39.594Z,6.25
2022-11-15T13:52:17.512Z,7.63
2022-11-15T13:55:24.458Z,4.70
2022-11-15T13:57:59.961Z,3.72
2022-11-15T14:00:44.766Z,7.07
2022-11-15T14:03:20.877Z,4.63
2022-11-15T14:06:14.255Z,4.28
2022-11-15T14:09:04.302Z,5.70
2022-11-15T14:11:37.108Z,5.70
2022-11-15T14:14:09.139Z,5.07
2022-11-15T14:16:44.429Z,4.05
2022-11-15T14:19:22.752Z,4.10
2022-11-15T14:22:18.565Z,5.00
2022-11-15T14:25:20.401Z,8.02
2022-11-15T14:28:17.688Z,7.75
2022-11-15T14:30:52.650Z,8.15
2022-11-15T14:33:35.050Z,9.02
2022-11-15T14:36:20.464Z,5.13
2022-11-15T14:38:52.622Z,8.43
2022-11-15T14:41:27.599Z,5.88
2022-11-15T14:43:59.604Z,6.10
2022-11-15T14:46:31.957Z,6.15
2022-11-15T14:49:03.976Z,8.10
2022-11-15T14:51:36.574Z,6.03
2022-11-15T14:54:11.588Z,7.88
2022-11-15T14:56:43.956Z,4.57
2022-11-15T14:59:16.009Z,5.40
2022-11-15T15:01:48.058Z,4.28
2022-11-15T15:04:20.393Z,5.03
2022-11-15T15:06:52.878Z,5.13
2022-11-15T15:09:24.969Z,5.68
2022-11-15T15:11:59.741Z,5.07
2022-11-15T15:14:34.059Z,5.30
2022-11-15T15:17:06.148Z,5.32
2022-11-15T15:19:38.678Z,6.47
2022-11-15T15:22:19.935Z,5.07
2022-11-15T15:24:52.164Z,10.63
2022-11-15T15:27:24.290Z,7.32
2022-11-15T15:29:56.295Z,5.43
2022-11-15T15:32:28.248Z,7.72
2022-11-15T15:35:00.401Z,8.30
2022-11-15T15:37:35.063Z,8.25
2022-11-15T15:40:19.299Z,9.13
2022-11-15T15:42:51.513Z,8.73
2022-11-15T15:45:23.519Z,10.52
2022-11-15T15:47:55.847Z,7.25
2022-11-15T15:50:34.377Z,9.88
2022-11-15T15:53:06.672Z,15.38
2022-11-15T15:55:38.721Z,18.98
2022-11-15T15:58:11.054Z,20.02
2022-11-15T16:00:43.143Z,18.15
2022-11-15T16:03:15.259Z,16.95
2022-11-15T16:05:47.736Z,19.60
2022-11-15T16:08:22.182Z,29.48
2022-11-15T16:10:54.354Z,28.70
2022-11-15T16:13:26.762Z,32.22
2022-11-15T16:15:58.703Z,29.90
2022-11-15T16:18:31.419Z,31.65
2022-11-15T16:21:03.676Z,33.00
2022-11-15T16:23:35.892Z,26.20
2022-11-15T16:26:21.068Z,25.25
2022-11-15T16:28:53.391Z,26.92
2022-11-15T16:31:25.364Z,24.80
2022-11-15T16:33:57.612Z,28.27
2022-11-15T16:36:33.255Z,23.77
2022-11-15T16:39:05.537Z,26.38
2022-11-15T16:41:37.541Z,29.45
2022-11-15T16:44:09.521Z,26.52
2022-11-15T16:46:49.429Z,23.60
2022-11-15T16:49:21.968Z,23.98
2022-11-15T16:51:54.122Z,22.50
2022-11-15T16:54:26.101Z,21.65
2022-11-15T16:56:58.054Z,26.35
2022-11-15T16:59:37.070Z,23.98
2022-11-15T17:02:13.556Z,43.38
2022-11-15T17:04:46.651Z,38.17
2022-11-15T17:07:18.804Z,30.45
2022-11-15T17:09:50.934Z,31.70
2022-11-15T17:12:22.965Z,28.75
2022-11-15T17:14:55.025Z,29.98
2022-11-15T17:17:27.089Z,33.05
2022-11-15T17:19:59.125Z,26.70
2022-11-15T17:22:31.774Z,26.05
2022-11-15T17:25:04.567Z,23.73
2022-11-15T17:27:36.922Z,27.33
2022-11-15T17:30:12.145Z,23.73
2022-11-15T17:32:44.431Z,25.35
2022-11-15T17:35:18.273Z,30.88
2022-11-15T17:40:22.289Z,96.90
2022-11-15T17:42:55.525Z,84.55
2022-11-15T17:45:27.501Z,78.07
2022-11-15T17:47:59.458Z,79.93
2022-11-15T17:50:31.598Z,62.72
2022-11-15T17:53:03.609Z,57.60
2022-11-15T17:55:35.972Z,89.65
2022-11-15T17:58:08.479Z,75.55
2022-11-15T18:00:40.600Z,72.10
2022-11-15T18:03:13.273Z,57.90
2022-11-15T18:05:45.562Z,64.38
2022-11-15T18:08:17.529Z,55.20
2022-11-15T18:10:49.486Z,44.40
2022-11-15T18:13:21.651Z,41.22
2022-11-15T18:15:56.683Z,33.67
2022-11-15T18:18:30.123Z,33.60
2022-11-15T18:21:12.530Z,32.75
2022-11-15T18:23:45.183Z,37.42
2022-11-15T18:26:20.122Z,31.05
2022-11-15T18:29:02.198Z,29.60
2022-11-15T18:31:34.206Z,32.75
2022-11-15T18:34:06.386Z,30.95
2022-11-15T18:36:39.605Z,28.00
2022-11-15T18:39:16.451Z,34.85
2022-11-15T18:41:48.946Z,27.13
2022-11-15T18:44:20.998Z,29.73
2022-11-15T18:46:52.975Z,27.85
2022-11-15T18:49:25.028Z,32.00
2022-11-15T18:51:57.143Z,30.58
2022-11-15T18:54:31.277Z,35.33
2022-11-15T18:57:04.041Z,27.60
2022-11-15T18:59:36.147Z,28.67
2022-11-15T19:02:12.913Z,25.60
2022-11-15T19:04:44.936Z,27.90
2022-11-15T19:07:17.029Z,26.88
2022-11-15T19:09:49.016Z,27.00
2022-11-15T19:12:21.011Z,28.38
2022-11-15T19:14:53.018Z,35.45
2022-11-15T19:17:25.008Z,34.15
2022-11-15T19:19:57.198Z,34.13
2022-11-15T19:22:29.165Z,32.17
2022-11-15T19:25:01.174Z,29.85
2022-11-15T19:27:38.008Z,32.03
2022-11-15T19:30:10.794Z,32.03
2022-11-15T19:32:42.820Z,30.27
2022-11-15T19:35:14.953Z,23.70
2022-11-15T19:37:46.989Z,23.50
2022-11-15T19:40:18.967Z,26.77
2022-11-15T19:42:51.071Z,24.65
2022-11-15T19:45:23.103Z,29.25
2022-11-15T19:47:55.128Z,26.95
2022-11-15T19:50:27.089Z,27.45
2022-11-15T19:52:59.099Z,18.58
2022-11-15T19:55:31.050Z,20.98
2022-11-15T19:58:03.039Z,21.17
2022-11-15T20:00:35.184Z,23.02
2022-11-15T20:03:07.410Z,24.40
2022-11-15T20:05:39.374Z,25.60
2022-11-15T20:08:11.408Z,39.85
2022-11-15T20:10:45.980Z,30.40
2022-11-15T20:13:18.011Z,26.63
2022-11-15T20:15:50.127Z,26.75
2022-11-15T20:18:24.666Z,23.20
2022-11-15T20:20:58.565Z,21.13
2022-11-15T20:23:30.889Z,23.08
2022-11-15T20:26:02.953Z,28.88
2022-11-15T20:28:37.322Z,28.48
2022-11-15T20:31:10.462Z,24.42
2022-11-15T20:33:42.652Z,23.05
2022-11-15T20:36:16.064Z,23.45
2022-11-15T20:38:48.079Z,21.88
2022-11-15T20:41:20.055Z,20.73
2022-11-15T20:43:52.546Z,21.45
2022-11-15T20:46:24.714Z,24.35
2022-11-15T20:48:56.883Z,21.95
2022-11-15T20:51:28.960Z,21.48
2022-11-15T20:54:01.518Z,26.42
2022-11-15T20:56:33.516Z,22.05
2022-11-15T20:59:05.660Z,25.00
2022-11-15T21:01:37.863Z,27.05
2022-11-15T21:04:09.937Z,25.77
2022-11-15T21:06:47.495Z,24.25
2022-11-15T21:09:39.469Z,22.30
2022-11-15T21:12:13.543Z,28.77
2022-11-15T21:14:46.614Z,26.30
2022-11-15T21:17:18.900Z,19.70
2022-11-15T21:19:50.938Z,21.13
2022-11-15T21:22:23.184Z,19.75
2022-11-15T21:24:58.966Z,16.80
2022-11-15T21:27:31.516Z,17.10
2022-11-15T21:30:04.456Z,19.67
2022-11-15T21:32:37.636Z,22.08
2022-11-15T21:35:09.885Z,21.52
2022-11-15T21:37:41.960Z,18.58
2022-11-15T21:40:13.979Z,18.23
2022-11-15T21:42:45.939Z,18.98
2022-11-15T21:45:17.916Z,17.55
2022-11-15T21:47:49.909Z,18.85
2022-11-15T21:50:22.034Z,21.73
2022-11-15T21:52:54.028Z,18.55
2022-11-15T21:55:26.226Z,19.38
2022-11-15T21:57:58.271Z,17.50
2022-11-15T22:00:48.840Z,18.48
2022-11-15T22:03:20.872Z,17.30
2022-11-15T22:05:53.083Z,16.50
2022-11-15T22:08:25.543Z,19.67
2022-11-15T22:10:58.009Z,18.15
2022-11-15T22:13:30.182Z,16.15
2022-11-15T22:16:02.786Z,17.13
2022-11-15T22:18:35.118Z,18.48
2022-11-15T22:21:11.150Z,15.73
2022-11-15T22:23:44.692Z,16.98
2022-11-15T22:26:23.238Z,15.15
2022-11-15T22:28:55.914Z,17.85
2022-11-15T22:31:28.037Z,22.15
2022-11-15T22:34:00.058Z,19.08
2022-11-15T22:36:46.942Z,16.50
2022-11-15T22:39:24.070Z,15.65
2022-11-15T22:41:56.062Z,16.10
2022-11-15T22:44:28.038Z,16.50
2022-11-15T22:47:00.226Z,16.58
2022-11-15T22:49:32.239Z,16.17
2022-11-15T22:52:04.496Z,25.45
2022-11-15T22:54:36.898Z,18.33
2022-11-15T22:57:09.125Z,18.98
2022-11-15T22:59:42.506Z,18.17
2022-11-15T23:02:14.664Z,16.40
2022-11-15T23:04:46.660Z,19.30
2022-11-15T23:07:18.667Z,19.92
2022-11-15T23:09:52.339Z,19.95
2022-11-15T23:12:43.012Z,20.30
2022-11-15T23:15:15.071Z,19.65
2022-11-15T23:17:47.070Z,17.67
2022-11-15T23:20:41.826Z,19.52
2022-11-15T23:23:12.226Z,18.67
2022-11-15T23:25:44.215Z,20.27
2022-11-15T23:28:16.453Z,19.10
2022-11-15T23:31:06.865Z,20.13
2022-11-15T23:33:57.485Z,19.08
2022-11-15T23:36:30.017Z,17.48
2022-11-15T23:39:03.213Z,16.33
2022-11-15T23:41:35.420Z,21.50
2022-11-15T23:44:07.728Z,17.52
2022-11-15T23:46:39.885Z,16.88
2022-11-15T23:49:11.903Z,21.10
2022-11-15T23:51:45.328Z,21.17
2022-11-15T23:54:17.435Z,24.70
2022-11-15T23:56:49.387Z,18.00
2022-11-15T23:59:21.703Z,18.08
